createdAt,value
2023-05-18T00:01:14.642Z,12.30
2023-05-18T00:03:42.609Z,12.20
2023-05-18T00:06:10.409Z,12.30
2023-05-18T00:08:38.099Z,12.20
2023-05-18T00:11:05.850Z,12.20
2023-05-18T00:13:32.956Z,12.20
2023-05-18T00:16:00.087Z,12.10
2023-05-18T00:18:28.423Z,12.00
2023-05-18T00:21:01.222Z,12.10
2023-05-18T00:23:33.253Z,12.00
2023-05-18T00:26:00.969Z,12.00
2023-05-18T00:28:28.175Z,12.00
2023-05-18T00:30:55.221Z,12.00
2023-05-18T00:33:22.648Z,12.00
2023-05-18T00:35:49.675Z,11.90
2023-05-18T00:38:16.727Z,11.90
2023-05-18T00:40:44.029Z,11.90
2023-05-18T00:43:12.002Z,11.90
2023-05-18T00:45:39.078Z,11.80
2023-05-18T00:48:06.688Z,11.80
2023-05-18T00:50:33.745Z,11.80
2023-05-18T00:53:00.772Z,11.80
2023-05-18T00:55:31.037Z,11.80
2023-05-18T00:57:59.246Z,11.80
2023-05-18T01:00:26.312Z,11.70
2023-05-18T01:02:53.434Z,11.70
2023-05-18T01:05:22.438Z,11.70
2023-05-18T01:07:50.618Z,11.70
2023-05-18T01:10:18.763Z,11.60
2023-05-18T01:12:51.370Z,11.70
2023-05-18T01:15:39.312Z,11.60
2023-05-18T01:18:34.653Z,11.60
2023-05-18T01:21:25.766Z,11.60
2023-05-18T01:24:03.807Z,11.60
2023-05-18T01:26:37.692Z,11.60
2023-05-18T01:29:07.228Z,11.50
2023-05-18T01:31:34.751Z,11.50
2023-05-18T01:34:03.008Z,11.60
2023-05-18T01:36:29.981Z,11.60
2023-05-18T01:38:57.043Z,11.50
2023-05-18T01:41:27.184Z,11.50
2023-05-18T01:44:04.585Z,11.40
2023-05-18T01:46:51.926Z,11.40
2023-05-18T01:49:48.468Z,11.50
2023-05-18T01:52:23.750Z,11.60
2023-05-18T01:54:52.680Z,11.60
2023-05-18T01:57:20.427Z,11.50
2023-05-18T01:59:47.486Z,11.40
2023-05-18T02:02:14.795Z,11.40
2023-05-18T02:04:41.936Z,11.40
2023-05-18T02:07:08.966Z,11.40
2023-05-18T02:09:36.228Z,11.40
2023-05-18T02:12:03.673Z,11.40
2023-05-18T02:14:32.006Z,11.40
2023-05-18T02:16:59.046Z,11.40
2023-05-18T02:19:26.211Z,11.40
2023-05-18T02:21:54.082Z,11.40
2023-05-18T02:24:22.871Z,11.20
2023-05-18T02:26:49.889Z,11.20
2023-05-18T02:29:17.054Z,11.10
2023-05-18T02:31:44.124Z,11.10
2023-05-18T02:34:11.166Z,10.90
2023-05-18T02:36:40.202Z,10.90
2023-05-18T02:39:08.021Z,10.90
2023-05-18T02:41:38.388Z,10.80
2023-05-18T02:44:05.821Z,10.80
2023-05-18T02:46:32.867Z,10.80
2023-05-18T02:48:59.901Z,10.80
2023-05-18T02:51:27.015Z,10.80
2023-05-18T02:53:54.296Z,10.70
2023-05-18T02:56:21.804Z,10.70
2023-05-18T02:58:58.564Z,10.60
2023-05-18T03:01:41.387Z,10.60
2023-05-18T03:04:09.093Z,10.60
2023-05-18T03:06:40.541Z,10.70
2023-05-18T03:09:08.655Z,10.70
2023-05-18T03:11:41.131Z,10.60
2023-05-18T03:14:09.250Z,10.60
2023-05-18T03:16:38.943Z,10.50
2023-05-18T03:19:10.887Z,10.50
2023-05-18T03:21:41.568Z,10.50
2023-05-18T03:24:09.219Z,10.50
2023-05-18T03:26:38.989Z,10.50
2023-05-18T03:29:06.186Z,10.40
2023-05-18T03:31:33.584Z,10.40
2023-05-18T03:34:02.191Z,10.30
2023-05-18T03:36:29.434Z,10.30
2023-05-18T03:38:56.471Z,10.30
2023-05-18T03:41:23.907Z,10.30
2023-05-18T03:43:53.078Z,10.30
2023-05-18T03:46:20.183Z,10.30
2023-05-18T03:48:47.179Z,10.30
2023-05-18T03:51:18.627Z,10.20
2023-05-18T03:53:45.688Z,10.20
2023-05-18T03:56:13.507Z,10.10
2023-05-18T03:58:42.573Z,10.00
2023-05-18T04:01:09.942Z,10.00
2023-05-18T04:03:36.975Z,9.90
2023-05-18T04:06:04.194Z,9.80
2023-05-18T04:08:34.544Z,9.70
2023-05-18T04:11:01.809Z,9.70
2023-05-18T04:13:28.875Z,9.70
2023-05-18T04:15:58.107Z,9.70
2023-05-18T04:18:30.540Z,9.60
2023-05-18T04:20:57.570Z,9.60
2023-05-18T04:23:24.579Z,9.60
2023-05-18T04:25:51.795Z,9.60
2023-05-18T04:28:19.440Z,9.60
2023-05-18T04:30:47.819Z,9.60
2023-05-18T04:33:16.435Z,9.60
2023-05-18T04:35:45.088Z,9.50
2023-05-18T04:38:13.053Z,9.50
2023-05-18T04:40:42.981Z,9.40
2023-05-18T04:43:12.269Z,9.40
2023-05-18T04:45:39.511Z,9.40
2023-05-18T04:48:06.868Z,9.40
2023-05-18T04:50:33.918Z,9.40
2023-05-18T04:53:02.625Z,9.50
2023-05-18T04:55:31.654Z,9.50
2023-05-18T04:58:03.726Z,9.50
2023-05-18T05:00:31.495Z,9.50
2023-05-18T05:02:58.888Z,9.50
2023-05-18T05:05:27.454Z,9.50
2023-05-18T05:07:54.823Z,9.60
2023-05-18T05:10:22.001Z,9.60
2023-05-18T05:12:50.124Z,9.60
2023-05-18T05:15:17.950Z,9.70
2023-05-18T05:17:46.474Z,9.70
2023-05-18T05:20:14.149Z,9.70
2023-05-18T05:22:42.208Z,9.70
2023-05-18T05:25:11.581Z,9.90
2023-05-18T05:27:38.635Z,9.90
2023-05-18T05:30:06.275Z,10.00
2023-05-18T05:32:36.919Z,10.10
2023-05-18T05:35:05.545Z,10.20
2023-05-18T05:37:33.349Z,10.30
2023-05-18T05:40:00.539Z,10.70
2023-05-18T05:42:30.164Z,11.30
2023-05-18T05:44:57.599Z,11.80
2023-05-18T05:47:26.619Z,12.20
2023-05-18T05:49:53.756Z,12.50
2023-05-18T05:52:20.870Z,12.70
2023-05-18T05:54:48.455Z,13.00
2023-05-18T05:57:15.737Z,13.30
2023-05-18T05:59:42.912Z,13.70
2023-05-18T06:02:10.369Z,14.00
2023-05-18T06:04:37.511Z,14.30
2023-05-18T06:07:04.971Z,14.60
2023-05-18T06:09:32.136Z,14.90
2023-05-18T06:12:00.015Z,15.10
2023-05-18T06:14:28.507Z,15.40
2023-05-18T06:16:57.587Z,15.80
2023-05-18T06:19:25.053Z,16.20
2023-05-18T06:21:53.388Z,16.40
2023-05-18T06:24:20.929Z,16.70
2023-05-18T06:27:18.599Z,17.00
2023-05-18T06:30:11.279Z,17.30
2023-05-18T06:32:58.720Z,17.50
2023-05-18T06:35:26.297Z,17.70
2023-05-18T06:37:53.272Z,17.80
2023-05-18T06:40:20.324Z,18.00
2023-05-18T06:42:47.637Z,18.20
2023-05-18T06:45:36.181Z,18.30
2023-05-18T06:48:14.348Z,18.30
2023-05-18T06:50:41.363Z,18.60
2023-05-18T06:53:09.223Z,18.90
2023-05-18T06:55:36.265Z,18.90
2023-05-18T06:58:03.314Z,19.10
2023-05-18T07:00:30.727Z,19.40
2023-05-18T07:02:57.905Z,19.30
2023-05-18T07:05:24.933Z,19.20
2023-05-18T07:07:52.076Z,19.40
2023-05-18T07:10:19.112Z,19.60
2023-05-18T07:12:46.163Z,19.90
2023-05-18T07:15:13.199Z,20.20
2023-05-18T07:17:40.289Z,20.50
2023-05-18T07:20:08.031Z,20.60
2023-05-18T07:22:35.322Z,20.80
2023-05-18T07:25:02.333Z,21.00
2023-05-18T07:27:29.320Z,21.30
2023-05-18T07:29:56.318Z,21.20
2023-05-18T07:32:23.545Z,21.00
2023-05-18T07:34:51.062Z,21.30
2023-05-18T07:37:18.166Z,21.50
2023-05-18T07:39:45.195Z,21.70
2023-05-18T07:42:12.220Z,21.80
2023-05-18T07:44:39.359Z,22.00
2023-05-18T07:47:06.721Z,21.80
2023-05-18T07:49:33.764Z,21.70
2023-05-18T07:52:02.672Z,21.80
2023-05-18T07:54:29.645Z,21.70
2023-05-18T07:57:00.327Z,21.60
2023-05-18T07:59:27.769Z,21.60
2023-05-18T08:01:55.247Z,21.90
2023-05-18T08:04:22.358Z,21.50
2023-05-18T08:06:49.391Z,21.60
2023-05-18T08:09:16.770Z,21.70
2023-05-18T08:11:45.432Z,22.00
2023-05-18T08:14:12.601Z,22.40
2023-05-18T08:16:40.184Z,22.20
2023-05-18T08:19:07.349Z,22.30
2023-05-18T08:21:34.732Z,22.20
2023-05-18T08:24:03.206Z,22.50
2023-05-18T08:26:30.539Z,22.80
2023-05-18T08:28:57.563Z,22.90
2023-05-18T08:31:24.588Z,22.90
2023-05-18T08:33:51.592Z,22.40
2023-05-18T08:36:18.599Z,22.50
2023-05-18T08:38:45.606Z,22.70
2023-05-18T08:41:38.586Z,22.80
2023-05-18T08:44:22.432Z,22.70
2023-05-18T08:46:53.036Z,22.70
2023-05-18T08:49:21.850Z,22.90
2023-05-18T08:51:51.247Z,22.90
2023-05-18T08:54:21.281Z,22.70
2023-05-18T08:56:48.868Z,23.00
2023-05-18T08:59:18.391Z,23.10
2023-05-18T09:01:45.540Z,23.50
2023-05-18T09:04:12.986Z,23.50
2023-05-18T09:06:40.138Z,23.70
2023-05-18T09:09:07.679Z,23.90
2023-05-18T09:11:35.978Z,24.10
2023-05-18T09:14:03.069Z,23.70
2023-05-18T09:16:30.727Z,23.00
2023-05-18T09:18:57.781Z,22.90
2023-05-18T09:21:24.826Z,22.70
2023-05-18T09:23:51.862Z,22.10
2023-05-18T09:26:19.893Z,22.30
2023-05-18T09:28:49.593Z,22.20
2023-05-18T09:31:21.065Z,22.00
2023-05-18T09:33:48.487Z,21.50
2023-05-18T09:36:16.014Z,20.70
2023-05-18T09:38:46.214Z,19.80
2023-05-18T09:41:16.774Z,19.50
2023-05-18T09:43:44.443Z,19.90
2023-05-18T09:46:12.105Z,20.40
2023-05-18T09:48:52.421Z,20.50
2023-05-18T09:51:20.011Z,20.10
2023-05-18T09:53:53.612Z,20.00
2023-05-18T09:56:21.736Z,19.80
2023-05-18T09:58:48.732Z,19.50
2023-05-18T10:01:15.955Z,19.80
2023-05-18T10:03:45.403Z,20.20
2023-05-18T10:06:17.542Z,19.90
2023-05-18T10:08:45.723Z,20.10
2023-05-18T10:11:12.805Z,20.10
2023-05-18T10:13:42.684Z,20.30
2023-05-18T10:16:09.717Z,20.50
2023-05-18T10:18:39.089Z,20.30
2023-05-18T10:21:07.242Z,20.10
2023-05-18T10:23:35.077Z,20.20
2023-05-18T10:26:04.527Z,20.50
2023-05-18T10:28:33.601Z,20.50
2023-05-18T10:31:01.212Z,20.50
2023-05-18T10:33:29.858Z,19.90
2023-05-18T10:35:57.619Z,19.90
2023-05-18T10:38:28.309Z,19.90
2023-05-18T10:40:57.531Z,19.80
2023-05-18T10:43:28.360Z,19.80
2023-05-18T10:46:00.115Z,19.70
2023-05-18T10:48:28.308Z,19.40
2023-05-18T10:50:56.779Z,19.50
2023-05-18T10:53:29.582Z,19.70
2023-05-18T10:55:56.721Z,20.00
2023-05-18T10:58:25.782Z,20.10
2023-05-18T11:00:54.724Z,20.30
2023-05-18T11:03:22.595Z,20.50
2023-05-18T11:05:51.544Z,20.50
2023-05-18T11:08:26.900Z,20.30
2023-05-18T11:11:04.514Z,20.20
2023-05-18T11:13:32.587Z,20.10
2023-05-18T11:15:59.758Z,20.10
2023-05-18T11:18:39.020Z,20.30
2023-05-18T11:21:24.517Z,20.30
2023-05-18T11:24:26.576Z,20.50
2023-05-18T11:26:54.878Z,20.50
2023-05-18T11:29:41.118Z,20.50
2023-05-18T11:32:30.313Z,20.10
2023-05-18T11:34:58.496Z,19.90
2023-05-18T11:37:41.466Z,19.90
2023-05-18T11:40:30.696Z,19.90
2023-05-18T11:42:58.217Z,19.90
2023-05-18T11:45:25.254Z,19.70
2023-05-18T11:47:56.940Z,19.80
2023-05-18T11:50:24.237Z,20.00
2023-05-18T11:52:54.356Z,20.00
2023-05-18T11:55:21.495Z,19.90
2023-05-18T11:57:50.226Z,19.70
2023-05-18T12:00:17.428Z,19.40
2023-05-18T12:02:46.447Z,19.60
2023-05-18T12:05:13.959Z,19.60
2023-05-18T12:07:41.242Z,19.70
2023-05-18T12:10:12.324Z,19.80
2023-05-18T12:12:40.244Z,19.90
2023-05-18T12:15:11.742Z,20.00
2023-05-18T12:17:46.088Z,20.00
2023-05-18T12:20:17.588Z,19.80
2023-05-18T12:22:53.271Z,19.70
2023-05-18T12:25:22.149Z,19.70
2023-05-18T12:27:49.487Z,19.70
2023-05-18T12:30:17.347Z,19.60
2023-05-18T12:32:57.301Z,19.60
2023-05-18T12:35:25.282Z,19.90
2023-05-18T12:37:52.383Z,19.80
2023-05-18T12:40:20.154Z,19.90
2023-05-18T12:43:00.335Z,19.80
2023-05-18T12:45:28.292Z,19.90
2023-05-18T12:47:56.470Z,20.00
2023-05-18T12:50:26.914Z,20.20
2023-05-18T12:52:55.362Z,20.40
2023-05-18T12:55:22.680Z,20.20
2023-05-18T12:58:14.717Z,20.00
2023-05-18T13:00:44.313Z,19.90
2023-05-18T13:03:15.979Z,19.80
2023-05-18T13:05:45.802Z,19.90
2023-05-18T13:08:22.318Z,20.20
2023-05-18T13:11:01.184Z,20.10
2023-05-18T13:13:36.673Z,20.10
2023-05-18T13:16:03.727Z,20.40
2023-05-18T13:18:30.815Z,20.30
2023-05-18T13:20:58.760Z,20.20
2023-05-18T13:23:28.104Z,20.20
2023-05-18T13:25:57.394Z,20.10
2023-05-18T13:28:25.433Z,20.20
2023-05-18T13:30:52.450Z,20.10
2023-05-18T13:33:19.658Z,20.00
2023-05-18T13:35:46.902Z,20.00
2023-05-18T13:38:14.201Z,20.00
2023-05-18T13:40:41.914Z,19.80
2023-05-18T13:43:11.177Z,19.70
2023-05-18T13:45:39.889Z,19.60
2023-05-18T13:48:09.424Z,19.30
2023-05-18T13:50:37.349Z,19.40
2023-05-18T13:53:04.549Z,19.60
2023-05-18T13:55:31.814Z,19.90
2023-05-18T13:57:59.023Z,20.10
2023-05-18T14:00:26.403Z,20.00
2023-05-18T14:02:53.606Z,20.00
2023-05-18T14:05:20.872Z,20.00
2023-05-18T14:07:48.007Z,20.10
2023-05-18T14:10:15.082Z,20.10
2023-05-18T14:12:44.965Z,20.10
2023-05-18T14:15:14.108Z,19.80
2023-05-18T14:17:42.351Z,19.50
2023-05-18T14:20:10.288Z,19.40
2023-05-18T14:22:37.338Z,19.60
2023-05-18T14:25:04.681Z,19.70
2023-05-18T14:27:32.164Z,19.90
2023-05-18T14:29:59.212Z,19.90
2023-05-18T14:32:26.408Z,19.70
2023-05-18T14:34:55.952Z,19.40
2023-05-18T14:37:23.087Z,19.20
2023-05-18T14:39:50.390Z,19.10
2023-05-18T14:42:17.372Z,19.40
2023-05-18T14:44:44.384Z,19.50
2023-05-18T14:47:11.493Z,19.50
2023-05-18T14:49:38.613Z,19.40
2023-05-18T14:52:06.078Z,19.30
2023-05-18T14:54:33.136Z,19.40
2023-05-18T14:57:01.496Z,19.50
2023-05-18T14:59:28.577Z,19.50
2023-05-18T15:01:55.786Z,19.30
2023-05-18T15:04:23.780Z,19.30
2023-05-18T15:06:50.994Z,19.40
2023-05-18T15:09:18.098Z,19.40
2023-05-18T15:11:45.836Z,19.20
2023-05-18T15:14:12.983Z,19.30
2023-05-18T15:16:40.198Z,19.20
2023-05-18T15:19:07.301Z,19.30
2023-05-18T15:21:34.384Z,19.20
2023-05-18T15:24:01.367Z,19.30
2023-05-18T15:26:28.480Z,19.40
2023-05-18T15:28:55.574Z,19.50
2023-05-18T15:31:22.740Z,19.40
2023-05-18T15:33:49.815Z,19.20
2023-05-18T15:36:16.898Z,19.30
2023-05-18T15:38:43.838Z,19.40
2023-05-18T15:41:10.963Z,19.40
2023-05-18T15:43:39.247Z,19.40
2023-05-18T15:46:06.422Z,19.40
2023-05-18T15:48:33.511Z,19.50
2023-05-18T15:51:00.560Z,19.40
2023-05-18T15:53:27.677Z,19.40
2023-05-18T15:55:58.712Z,19.20
2023-05-18T15:58:27.014Z,19.20
2023-05-18T16:00:54.272Z,19.20
2023-05-18T16:03:21.584Z,19.20
2023-05-18T16:05:48.926Z,19.20
2023-05-18T16:08:16.238Z,19.20
2023-05-18T16:10:43.702Z,19.10
2023-05-18T16:13:10.875Z,19.20
2023-05-18T16:15:37.900Z,19.20
2023-05-18T16:18:05.310Z,19.10
2023-05-18T16:20:32.697Z,19.10
2023-05-18T16:23:00.035Z,19.10
2023-05-18T16:25:27.034Z,19.00
2023-05-18T16:27:54.041Z,19.10
2023-05-18T16:30:21.097Z,19.10
2023-05-18T16:32:48.250Z,19.00
2023-05-18T16:35:15.287Z,18.90
2023-05-18T16:37:42.444Z,18.90
2023-05-18T16:40:09.741Z,18.80
2023-05-18T16:42:36.858Z,18.80
2023-05-18T16:45:04.304Z,18.60
2023-05-18T16:47:34.545Z,18.40
2023-05-18T16:50:01.802Z,18.40
2023-05-18T16:52:28.890Z,18.40
2023-05-18T16:54:55.957Z,18.50
2023-05-18T16:57:25.927Z,18.30
2023-05-18T16:59:54.432Z,18.30
2023-05-18T17:02:21.718Z,18.20
2023-05-18T17:04:50.062Z,18.30
2023-05-18T17:07:17.288Z,18.30
2023-05-18T17:09:44.623Z,18.30
2023-05-18T17:12:11.802Z,18.30
2023-05-18T17:14:38.837Z,18.40
2023-05-18T17:17:06.777Z,18.40
2023-05-18T17:19:35.364Z,18.30
2023-05-18T17:22:03.333Z,18.20
2023-05-18T17:24:30.749Z,18.30
2023-05-18T17:26:58.730Z,18.30
2023-05-18T17:29:25.866Z,18.20
2023-05-18T17:31:52.974Z,18.20
2023-05-18T17:34:20.192Z,18.10
2023-05-18T17:36:47.232Z,18.20
2023-05-18T17:39:16.584Z,18.30
2023-05-18T17:41:44.123Z,18.20
2023-05-18T17:44:16.444Z,18.10
2023-05-18T17:46:46.887Z,18.00
2023-05-18T17:49:14.081Z,17.90
2023-05-18T17:51:41.597Z,17.80
2023-05-18T17:54:08.776Z,17.80
2023-05-18T17:56:36.077Z,17.70
2023-05-18T17:59:03.442Z,17.70
2023-05-18T18:01:30.624Z,17.60
2023-05-18T18:03:57.845Z,17.50
2023-05-18T18:06:25.055Z,17.40
2023-05-18T18:08:57.733Z,17.30
2023-05-18T18:11:26.084Z,17.30
2023-05-18T18:13:53.116Z,17.30
2023-05-18T18:16:20.273Z,17.30
2023-05-18T18:18:48.009Z,17.20
2023-05-18T18:21:15.044Z,17.20
2023-05-18T18:23:42.100Z,17.10
2023-05-18T18:26:09.211Z,17.10
2023-05-18T18:28:36.284Z,17.10
2023-05-18T18:31:03.697Z,17.00
2023-05-18T18:33:30.788Z,16.90
2023-05-18T18:35:57.837Z,16.90
2023-05-18T18:38:27.154Z,16.70
2023-05-18T18:41:00.029Z,16.70
2023-05-18T18:43:28.112Z,16.70
2023-05-18T18:45:56.021Z,16.60
2023-05-18T18:48:23.804Z,16.60
2023-05-18T18:50:50.884Z,16.50
2023-05-18T18:53:17.917Z,16.30
2023-05-18T18:55:44.999Z,16.20
2023-05-18T18:58:12.012Z,16.10
2023-05-18T19:00:39.000Z,16.00
2023-05-18T19:03:06.159Z,15.90
2023-05-18T19:05:33.563Z,15.80
2023-05-18T19:08:01.977Z,15.80
2023-05-18T19:10:29.064Z,15.70
2023-05-18T19:12:59.513Z,15.70
2023-05-18T19:15:26.578Z,15.70
2023-05-18T19:17:54.045Z,15.60
2023-05-18T19:20:21.429Z,15.60
2023-05-18T19:22:48.386Z,15.50
2023-05-18T19:25:15.478Z,15.30
2023-05-18T19:27:42.559Z,15.20
2023-05-18T19:30:11.107Z,15.10
2023-05-18T19:32:38.112Z,15.00
2023-05-18T19:35:05.247Z,15.00
2023-05-18T19:37:32.209Z,15.00
2023-05-18T19:39:59.161Z,15.00
2023-05-18T19:42:26.372Z,14.90
2023-05-18T19:44:53.369Z,14.90
2023-05-18T19:47:20.733Z,14.80
2023-05-18T19:49:48.035Z,14.70
2023-05-18T19:52:16.006Z,14.60
2023-05-18T19:54:43.081Z,14.60
2023-05-18T19:57:10.114Z,14.60
2023-05-18T19:59:37.301Z,14.60
2023-05-18T20:02:07.210Z,14.60
2023-05-18T20:04:34.714Z,14.40
2023-05-18T20:07:01.722Z,14.30
2023-05-18T20:09:29.089Z,14.30
2023-05-18T20:11:56.325Z,14.20
2023-05-18T20:14:23.819Z,14.10
2023-05-18T20:16:52.620Z,14.00
2023-05-18T20:19:19.818Z,13.90
2023-05-18T20:21:50.096Z,13.80
2023-05-18T20:24:17.201Z,13.80
2023-05-18T20:26:44.348Z,13.80
2023-05-18T20:29:11.590Z,13.70
2023-05-18T20:31:38.700Z,13.60
2023-05-18T20:34:07.124Z,13.60
2023-05-18T20:36:35.991Z,13.60
2023-05-18T20:39:04.029Z,13.50
2023-05-18T20:41:31.048Z,13.50
2023-05-18T20:44:02.155Z,13.50
2023-05-18T20:46:31.260Z,13.50
2023-05-18T20:48:58.394Z,13.50
2023-05-18T20:51:25.974Z,13.40
2023-05-18T20:53:53.009Z,13.40
2023-05-18T20:56:21.988Z,13.30
2023-05-18T20:58:50.342Z,13.30
2023-05-18T21:01:18.852Z,13.20
2023-05-18T21:03:46.114Z,13.20
2023-05-18T21:06:14.183Z,13.20
2023-05-18T21:08:41.472Z,13.20
2023-05-18T21:11:08.484Z,13.10
2023-05-18T21:13:37.137Z,13.00
2023-05-18T21:16:06.804Z,13.00
2023-05-18T21:18:34.723Z,13.00
2023-05-18T21:21:04.216Z,12.90
2023-05-18T21:23:31.239Z,13.00
2023-05-18T21:25:58.366Z,12.90
2023-05-18T21:28:25.532Z,12.90
2023-05-18T21:30:52.798Z,12.90
2023-05-18T21:33:20.096Z,12.80
2023-05-18T21:35:47.257Z,12.80
2023-05-18T21:38:14.425Z,12.70
2023-05-18T21:40:43.811Z,12.70
2023-05-18T21:43:11.108Z,12.70
2023-05-18T21:45:38.544Z,12.60
2023-05-18T21:48:06.057Z,12.50
2023-05-18T21:50:35.933Z,12.50
2023-05-18T21:53:03.580Z,12.40
2023-05-18T21:55:33.829Z,12.30
2023-05-18T21:58:00.890Z,12.20
2023-05-18T22:00:28.180Z,12.20
2023-05-18T22:02:55.282Z,12.10
2023-05-18T22:05:22.339Z,12.00
2023-05-18T22:07:49.753Z,12.00
2023-05-18T22:10:18.321Z,11.90
2023-05-18T22:12:45.411Z,11.80
2023-05-18T22:15:12.596Z,11.80
2023-05-18T22:17:39.865Z,11.70
2023-05-18T22:20:09.127Z,11.70
2023-05-18T22:22:36.100Z,11.70
2023-05-18T22:25:03.098Z,11.60
2023-05-18T22:27:30.314Z,11.60
2023-05-18T22:29:57.532Z,11.60
2023-05-18T22:32:24.857Z,11.50
2023-05-18T22:34:52.155Z,11.50
2023-05-18T22:37:19.143Z,11.40
2023-05-18T22:39:46.217Z,11.40
2023-05-18T22:42:13.205Z,11.40
2023-05-18T22:44:40.271Z,11.30
2023-05-18T22:47:07.299Z,11.20
2023-05-18T22:49:36.023Z,11.20
2023-05-18T22:52:04.634Z,11.10
2023-05-18T22:54:31.666Z,11.00
2023-05-18T22:56:59.703Z,11.00
2023-05-18T22:59:28.843Z,10.90
2023-05-18T23:01:56.017Z,10.90
2023-05-18T23:04:23.013Z,10.80
2023-05-18T23:06:50.945Z,10.90
2023-05-18T23:09:18.616Z,10.80
2023-05-18T23:11:46.229Z,10.80
2023-05-18T23:14:14.409Z,10.70
2023-05-18T23:16:43.172Z,10.70
2023-05-18T23:19:12.654Z,10.70
2023-05-18T23:21:40.386Z,10.70
2023-05-18T23:24:08.156Z,10.70
2023-05-18T23:26:35.157Z,10.70
2023-05-18T23:29:02.471Z,10.70
2023-05-18T23:31:30.133Z,10.80
2023-05-18T23:33:57.635Z,10.80
2023-05-18T23:36:30.590Z,10.80
2023-05-18T23:38:59.276Z,10.80
2023-05-18T23:41:27.462Z,10.80
2023-05-18T23:43:55.111Z,10.80
2023-05-18T23:46:22.823Z,10.80
2023-05-18T23:48:52.454Z,10.70
2023-05-18T23:51:23.041Z,10.70
2023-05-18T23:53:52.562Z,10.60
2023-05-18T23:56:19.851Z,10.60
2023-05-18T23:58:47.183Z,10.50
